createdAt,value
2023-03-26T00:01:25.465Z,7.63
2023-03-26T00:05:27.795Z,6.45
2023-03-26T00:09:29.842Z,5.28
2023-03-26T00:13:33.153Z,11.98
2023-03-26T00:17:35.157Z,7.93
2023-03-26T00:21:37.273Z,6.32
2023-03-26T00:25:41.418Z,9.45
2023-03-26T00:29:43.472Z,9.55
2023-03-26T00:33:45.581Z,8.27
2023-03-26T00:37:47.828Z,8.02
2023-03-26T00:41:54.222Z,6.63
2023-03-26T00:45:56.790Z,7.97
2023-03-26T00:49:59.280Z,8.20
2023-03-26T00:54:01.447Z,8.80
2023-03-26T00:58:03.548Z,7.45
2023-03-26T01:02:10.546Z,8.63
2023-03-26T01:06:19.685Z,6.50
2023-03-26T01:10:22.646Z,6.15
2023-03-26T01:14:26.793Z,7.78
2023-03-26T01:18:34.156Z,7.40
2023-03-26T01:22:37.637Z,9.55
2023-03-26T01:26:58.651Z,7.13
2023-03-26T01:31:17.267Z,8.27
2023-03-26T01:35:28.488Z,10.65
2023-03-26T01:40:06.887Z,7.07
2023-03-26T01:44:23.385Z,7.63
2023-03-26T01:48:31.757Z,9.25
2023-03-26T01:52:33.878Z,9.20
2023-03-26T01:56:43.785Z,8.63
2023-03-26T02:01:02.002Z,7.45
2023-03-26T02:05:29.006Z,11.18
2023-03-26T02:09:36.953Z,8.18
2023-03-26T02:13:40.902Z,7.40
2023-03-26T02:17:43.121Z,9.68
2023-03-26T02:21:46.744Z,10.77
2023-03-26T02:25:49.017Z,9.93
2023-03-26T02:29:51.155Z,11.07
2023-03-26T02:33:57.195Z,10.60
2023-03-26T02:38:02.591Z,7.20
2023-03-26T02:42:05.206Z,6.60
2023-03-26T02:46:13.424Z,7.15
2023-03-26T02:50:32.571Z,9.00
2023-03-26T02:54:53.551Z,10.85
2023-03-26T02:58:57.628Z,7.35
2023-03-26T03:03:00.132Z,6.35
2023-03-26T03:07:05.863Z,7.60
2023-03-26T03:11:11.218Z,7.90
2023-03-26T03:15:18.680Z,11.75
2023-03-26T03:19:20.976Z,7.28
2023-03-26T03:23:23.181Z,5.95
2023-03-26T03:27:31.326Z,6.00
2023-03-26T03:31:42.078Z,7.13
2023-03-26T03:35:54.910Z,5.38
2023-03-26T03:39:57.388Z,5.95
2023-03-26T03:44:01.969Z,8.00
2023-03-26T03:48:06.343Z,6.65
2023-03-26T03:52:14.890Z,7.40
2023-03-26T03:56:19.527Z,7.43
2023-03-26T04:00:41.581Z,6.80
2023-03-26T04:05:06.067Z,7.03
2023-03-26T04:09:10.227Z,6.78
2023-03-26T04:13:14.686Z,6.88
2023-03-26T04:17:45.924Z,8.95
2023-03-26T04:21:50.487Z,5.90
2023-03-26T04:25:56.221Z,5.72
2023-03-26T04:30:15.445Z,8.32
2023-03-26T04:34:26.398Z,7.57
2023-03-26T04:38:52.024Z,6.13
2023-03-26T04:42:59.870Z,8.07
2023-03-26T04:47:24.729Z,9.68
2023-03-26T04:51:38.365Z,7.07
2023-03-26T04:56:04.081Z,6.50
2023-03-26T05:00:32.351Z,8.50
2023-03-26T05:04:36.779Z,8.13
2023-03-26T05:08:39.386Z,6.57
2023-03-26T05:12:42.518Z,4.97
2023-03-26T05:16:53.315Z,5.47
2023-03-26T05:20:57.423Z,7.00
2023-03-26T05:25:00.644Z,7.68
2023-03-26T05:29:03.201Z,7.32
2023-03-26T05:33:11.028Z,6.28
2023-03-26T05:37:31.046Z,7.18
2023-03-26T05:41:42.962Z,6.72
2023-03-26T05:45:47.814Z,7.10
2023-03-26T05:50:00.845Z,8.52
2023-03-26T05:54:03.035Z,8.15
2023-03-26T05:58:41.988Z,5.88
2023-03-26T06:03:16.520Z,8.68
2023-03-26T06:07:37.328Z,7.22
2023-03-26T06:11:45.227Z,8.10
2023-03-26T06:15:47.338Z,6.82
2023-03-26T06:19:56.982Z,5.22
2023-03-26T06:24:07.904Z,6.00
2023-03-26T06:28:23.263Z,5.63
2023-03-26T06:32:51.169Z,8.88
2023-03-26T06:36:58.669Z,5.72
2023-03-26T06:41:06.127Z,6.55
2023-03-26T06:45:34.208Z,7.40
2023-03-26T06:49:54.546Z,7.53
2023-03-26T06:54:22.678Z,9.25
2023-03-26T06:58:27.748Z,4.93
2023-03-26T07:02:50.160Z,7.07
2023-03-26T07:07:11.401Z,7.30
2023-03-26T07:11:32.163Z,9.85
2023-03-26T07:15:57.088Z,11.50
2023-03-26T07:20:10.250Z,8.20
2023-03-26T07:24:13.794Z,8.98
2023-03-26T07:29:03.852Z,10.35
2023-03-26T07:33:49.324Z,5.93
2023-03-26T07:38:31.354Z,8.38
2023-03-26T07:43:00.793Z,7.05
2023-03-26T07:47:35.753Z,6.53
2023-03-26T07:51:53.920Z,8.48
2023-03-26T07:56:46.155Z,7.43
2023-03-26T08:01:32.853Z,6.15
2023-03-26T08:05:43.231Z,7.15
2023-03-26T08:10:08.265Z,6.28
2023-03-26T08:14:36.341Z,4.72
2023-03-26T08:18:49.466Z,6.40
2023-03-26T08:22:59.301Z,4.97
2023-03-26T08:27:01.405Z,4.25
2023-03-26T08:31:04.509Z,3.80
2023-03-26T08:35:07.004Z,2.10
2023-03-26T08:39:09.091Z,2.83
2023-03-26T08:43:44.317Z,3.45
2023-03-26T08:47:59.158Z,3.30
2023-03-26T08:52:24.480Z,2.65
2023-03-26T08:57:00.404Z,4.18
2023-03-26T09:01:30.658Z,5.00
2023-03-26T09:06:04.656Z,5.43
2023-03-26T09:10:25.322Z,2.95
2023-03-26T09:14:42.522Z,2.50
2023-03-26T09:19:12.446Z,4.15
2023-03-26T09:23:46.170Z,3.55
2023-03-26T09:28:14.116Z,2.75
2023-03-26T09:36:55.301Z,3.40
2023-03-26T09:41:14.041Z,1.65
2023-03-26T09:45:51.628Z,2.38
2023-03-26T09:50:15.703Z,5.28
2023-03-26T09:54:23.918Z,2.97
2023-03-26T09:58:47.432Z,4.50
2023-03-26T10:03:07.812Z,3.78
2023-03-26T10:07:31.981Z,3.63
2023-03-26T10:11:46.128Z,2.75
2023-03-26T10:16:19.525Z,1.83
2023-03-26T10:20:33.328Z,3.28
2023-03-26T10:25:17.368Z,2.03
2023-03-26T10:29:26.533Z,2.83
2023-03-26T10:33:56.204Z,5.00
2023-03-26T10:38:04.298Z,3.58
2023-03-26T10:42:22.732Z,3.60
2023-03-26T10:47:00.098Z,3.00
2023-03-26T10:51:19.735Z,2.70
2023-03-26T10:55:34.752Z,3.85
2023-03-26T10:59:37.010Z,3.08
2023-03-26T11:03:51.893Z,5.15
2023-03-26T11:08:01.924Z,5.60
2023-03-26T11:12:03.894Z,5.28
2023-03-26T11:16:31.378Z,5.70
2023-03-26T11:20:42.787Z,4.25
2023-03-26T11:25:06.761Z,4.13
2023-03-26T11:29:31.619Z,4.05
2023-03-26T11:33:45.550Z,4.93
2023-03-26T11:37:53.399Z,4.65
2023-03-26T11:42:11.115Z,4.32
2023-03-26T11:46:20.657Z,2.42
2023-03-26T11:50:30.400Z,3.20
2023-03-26T11:54:33.655Z,4.18
2023-03-26T11:58:43.822Z,1.83
2023-03-26T12:02:48.750Z,2.67
2023-03-26T12:07:04.942Z,3.53
2023-03-26T12:11:10.800Z,2.30
2023-03-26T12:15:18.985Z,3.00
2023-03-26T12:19:22.286Z,2.42
2023-03-26T12:23:42.405Z,3.97
2023-03-26T12:27:48.895Z,4.28
2023-03-26T12:32:14.888Z,3.80
2023-03-26T12:36:25.572Z,2.60
2023-03-26T12:40:36.650Z,3.22
2023-03-26T12:44:58.778Z,1.42
2023-03-26T12:49:06.425Z,1.52
2023-03-26T12:53:27.362Z,1.05
2023-03-26T12:57:40.728Z,3.25
2023-03-26T13:02:08.991Z,1.58
2023-03-26T13:06:48.462Z,2.13
2023-03-26T13:11:24.611Z,2.53
2023-03-26T13:15:34.498Z,1.63
2023-03-26T13:19:48.160Z,2.67
2023-03-26T13:24:04.326Z,1.02
2023-03-26T13:28:12.405Z,1.80
2023-03-26T13:32:35.999Z,0.70
2023-03-26T13:37:10.521Z,1.58
2023-03-26T13:41:21.589Z,2.58
2023-03-26T13:45:36.292Z,0.40
2023-03-26T13:49:43.969Z,1.45
2023-03-26T13:54:06.478Z,1.25
2023-03-26T13:58:27.012Z,1.55
2023-03-26T14:02:42.711Z,0.47
2023-03-26T14:06:48.724Z,0.95
2023-03-26T14:11:06.376Z,1.50
2023-03-26T14:19:41.111Z,0.52
2023-03-26T14:24:21.435Z,2.03
2023-03-26T14:29:01.087Z,1.23
2023-03-26T14:33:42.598Z,1.05
2023-03-26T14:38:32.855Z,1.23
2023-03-26T14:42:46.649Z,1.42
2023-03-26T14:47:14.839Z,0.88
2023-03-26T14:51:40.785Z,3.08
2023-03-26T14:56:08.694Z,2.80
2023-03-26T15:00:22.176Z,2.53
2023-03-26T15:04:36.991Z,0.40
2023-03-26T15:09:04.891Z,0.20
2023-03-26T15:13:31.716Z,0.25
2023-03-26T15:17:52.456Z,0.85
2023-03-26T15:22:37.792Z,1.23
2023-03-26T15:27:01.514Z,1.00
2023-03-26T15:31:18.689Z,1.50
2023-03-26T15:35:39.712Z,1.02
2023-03-26T15:39:59.393Z,0.93
2023-03-26T15:44:24.082Z,0.85
2023-03-26T15:48:36.570Z,2.08
2023-03-26T15:52:57.926Z,3.92
2023-03-26T15:57:12.365Z,2.03
2023-03-26T16:01:39.475Z,0.95
2023-03-26T16:06:22.392Z,0.60
2023-03-26T16:10:55.973Z,0.52
2023-03-26T16:15:07.391Z,1.02
2023-03-26T16:19:19.072Z,0.93
2023-03-26T16:23:29.308Z,2.17
2023-03-26T16:27:34.046Z,0.80
2023-03-26T16:31:38.322Z,1.52
2023-03-26T16:36:02.049Z,1.00
2023-03-26T16:40:16.538Z,1.63
2023-03-26T16:44:36.647Z,1.38
2023-03-26T16:49:00.303Z,2.08
2023-03-26T16:53:42.660Z,1.30
2023-03-26T16:57:53.756Z,0.57
2023-03-26T17:02:21.752Z,1.60
2023-03-26T17:06:30.574Z,7.22
2023-03-26T17:10:56.760Z,3.30
2023-03-26T17:15:26.329Z,1.85
2023-03-26T17:19:51.934Z,3.17
2023-03-26T17:23:59.988Z,2.88
2023-03-26T17:28:56.177Z,4.65
2023-03-26T17:33:07.181Z,2.58
2023-03-26T17:37:21.584Z,6.72
2023-03-26T17:41:49.630Z,6.18
2023-03-26T17:46:03.504Z,2.22
2023-03-26T17:50:29.878Z,2.17
2023-03-26T17:54:41.200Z,1.80
2023-03-26T17:58:47.946Z,1.27
2023-03-26T18:02:56.181Z,1.33
2023-03-26T18:07:17.183Z,2.80
2023-03-26T18:11:39.497Z,3.40
2023-03-26T18:16:06.158Z,1.90
2023-03-26T18:20:21.091Z,2.33
2023-03-26T18:24:39.809Z,3.05
2023-03-26T18:28:51.461Z,1.58
2023-03-26T18:33:03.239Z,2.85
2023-03-26T18:37:11.387Z,0.75
2023-03-26T18:41:29.012Z,0.73
2023-03-26T18:49:33.458Z,1.08
2023-03-26T18:53:50.048Z,1.88
2023-03-26T18:57:52.066Z,3.85
2023-03-26T19:01:58.624Z,1.58
2023-03-26T19:06:02.421Z,1.52
2023-03-26T19:10:04.860Z,2.40
2023-03-26T19:14:20.093Z,2.30
2023-03-26T19:18:25.523Z,1.05
2023-03-26T19:22:30.336Z,2.25
2023-03-26T19:26:33.292Z,1.00
2023-03-26T19:30:40.745Z,2.63
2023-03-26T19:34:45.106Z,1.17
2023-03-26T19:38:53.530Z,1.00
2023-03-26T19:42:58.018Z,2.00
2023-03-26T19:47:06.663Z,0.70
2023-03-26T19:51:19.958Z,0.57
2023-03-26T19:55:23.972Z,1.55
2023-03-26T19:59:26.023Z,0.60
2023-03-26T20:03:30.562Z,1.17
2023-03-26T20:07:35.267Z,1.00
2023-03-26T20:11:39.517Z,0.50
2023-03-26T20:15:44.050Z,0.65
2023-03-26T20:19:49.592Z,6.45
2023-03-26T20:23:53.637Z,4.43
2023-03-26T20:27:56.497Z,4.03
2023-03-26T20:31:58.495Z,0.70
2023-03-26T20:36:00.949Z,0.30
2023-03-26T20:40:05.129Z,0.65
2023-03-26T20:44:15.840Z,0.30
2023-03-26T20:48:17.926Z,1.05
2023-03-26T20:52:20.021Z,1.10
2023-03-26T20:56:22.029Z,0.47
2023-03-26T21:00:24.253Z,0.68
2023-03-26T21:04:26.671Z,0.90
2023-03-26T21:08:35.559Z,0.50
2023-03-26T21:12:45.385Z,0.40
2023-03-26T21:16:47.791Z,0.60
2023-03-26T21:21:26.137Z,0.65
2023-03-26T21:25:53.927Z,0.50
2023-03-26T21:29:57.723Z,0.50
2023-03-26T21:33:59.969Z,0.40
2023-03-26T21:38:04.378Z,0.30
2023-03-26T21:42:06.913Z,0.50
2023-03-26T21:46:09.635Z,0.40
2023-03-26T21:50:14.392Z,1.08
2023-03-26T21:54:33.883Z,0.93
2023-03-26T21:59:08.498Z,0.80
2023-03-26T22:03:34.541Z,1.23
2023-03-26T22:07:58.813Z,2.65
2023-03-26T22:12:01.976Z,1.02
2023-03-26T22:16:06.165Z,1.65
2023-03-26T22:20:14.101Z,0.90
2023-03-26T22:24:16.117Z,1.60
2023-03-26T22:28:19.217Z,1.25
2023-03-26T22:32:21.253Z,2.03
2023-03-26T22:36:25.289Z,1.60
2023-03-26T22:40:27.462Z,3.47
2023-03-26T22:44:29.536Z,2.05
2023-03-26T22:48:32.639Z,3.45
2023-03-26T22:52:36.429Z,3.70
2023-03-26T22:56:38.570Z,6.45
2023-03-26T23:00:41.641Z,5.30
2023-03-26T23:04:44.172Z,6.10
2023-03-26T23:08:46.610Z,24.33
2023-03-26T23:12:49.506Z,8.10
2023-03-26T23:16:51.740Z,8.07
2023-03-26T23:20:56.194Z,8.75
2023-03-26T23:24:58.337Z,9.48
2023-03-26T23:29:01.333Z,7.35
2023-03-26T23:33:03.785Z,11.90
2023-03-26T23:37:05.885Z,10.40
2023-03-26T23:41:07.913Z,11.25
2023-03-26T23:45:10.405Z,10.02
2023-03-26T23:49:12.769Z,8.77
2023-03-26T23:53:15.258Z,10.35
2023-03-26T23:57:18.429Z,10.40
